Date,TemperatureHighF,TemperatureAvgF,TemperatureLowF,DewpointHighF,DewpointAvgF,DewpointLowF,HumidityHigh,HumidityAvg,HumidityLow,PressureMaxIn,PressureMinIn,WindSpeedMaxMPH,WindSpeedAvgMPH,GustSpeedMaxMPH,PrecipitationSumIn
2013-1-1,46.8,37.8,32.7,36.4,30.9,26.6,82,76,65,29.56,28.94,8,1,8,0.05
2013-1-2,50.9,45.7,38.5,45.7,40.0,32.5,84,80,75,29.71,29.56,10,1,10,0.11
2013-1-3,54.5,50.5,47.8,45.9,43.6,41.0,84,77,67,30.06,29.71,9,2,9,0.00
2013-1-4,54.3,49.3,47.1,43.6,40.9,37.9,78,73,63,30.12,30.06,7,1,7,0.00
2013-1-5,53.2,48.2,41.2,42.1,39.6,33.5,79,72,62,30.12,29.92,10,1,10,0.05
2013-1-6,51.3,44.5,37.4,43.3,37.5,30.9,81,76,71,30.09,29.83,7,0,7,0.00
2013-1-7,49.1,47.8,46.8,44.0,42.1,39.9,83,80,77,29.83,29.65,5,0,5,0.34
2013-1-8,53.2,46.4,36.0,47.6,40.0,29.8,85,79,66,29.83,29.59,9,1,9,0.08
2013-1-9,43.9,36.1,33.4,37.1,30.4,27.6,82,80,78,29.83,29.80,3,0,3,0.00
2013-1-10,37.4,35.1,34.2,31.3,26.6,-99.9,79,76,77,29.65,29.59,0,0,0,0.00
2013-1-11,45.0,37.1,33.1,34.7,30.2,25.6,82,76,66,29.68,29.59,4,0,4,0.00
2013-1-12,45.5,34.3,29.8,32.3,27.6,23.2,83,76,50,29.77,29.53,3,0,3,0.00
2013-1-13,36.0,34.1,31.6,32.9,30.6,26.5,93,87,79,29.80,29.62,4,0,4,0.03
2013-1-14,39.6,33.9,29.3,35.6,31.3,26.2,97,90,79,29.62,29.39,5,0,5,0.00
2013-1-15,35.8,30.2,24.1,32.1,27.9,22.6,95,91,80,29.56,29.47,5,0,5,0.00
2013-1-16,33.6,30.0,24.3,27.2,25.3,22.5,96,83,71,29.59,29.47,5,0,5,0.00
2013-1-17,36.1,33.4,31.8,27.6,24.9,21.6,78,71,57,29.65,29.42,6,0,6,0.00
2013-1-18,34.2,32.0,28.8,27.1,22.2,19.1,80,67,56,29.42,29.18,12,2,12,0.00
2013-1-19,37.0,32.6,29.5,30.3,27.1,24.0,87,80,68,29.39,29.21,6,0,6,0.00
2013-1-20,34.0,33.0,32.2,27.6,25.7,22.8,81,74,66,29.36,29.18,6,1,6,0.00
2013-1-21,34.9,34.0,32.7,31.3,29.0,25.4,90,82,71,29.18,29.09,8,2,8,0.00
2013-1-22,37.2,33.3,29.7,31.5,28.6,26.3,93,83,71,29.47,29.12,10,0,10,0.09
2013-1-23,35.6,32.9,29.3,31.4,29.4,26.5,92,87,79,29.62,29.47,3,0,3,0.00
2013-1-24,37.9,34.1,32.0,31.7,29.6,27.8,91,84,69,29.71,29.62,8,1,8,0.00
2013-1-25,36.0,34.5,32.9,33.5,30.1,25.6,92,84,71,29.62,29.03,9,1,9,0.08
2013-1-26,43.0,38.1,33.1,42.2,35.7,30.7,97,91,80,29.24,28.59,13,2,13,0.26
2013-1-27,46.2,40.6,36.5,45.4,38.2,34.1,98,91,82,28.88,28.44,13,3,13,0.45
2013-1-28,45.3,40.5,36.3,43.0,38.1,33.7,94,91,83,29.00,28.50,17,4,17,0.33
2013-1-29,45.9,43.3,41.4,44.1,39.9,-99.9,94,90,87,29.00,28.68,11,3,11,0.03
2013-1-30,46.0,41.9,38.5,41.7,36.6,33.5,91,82,67,29.33,28.85,11,3,11,0.12
2013-1-31,46.6,40.6,36.9,42.0,37.7,34.4,95,89,81,29.33,28.85,17,3,17,0.50